Time;durP1;ratioP1;P1;durP2;ratioP2;P2;SDS_P1;SDS_P2;PMS_P1;PMS_P2;Temp;Humidity;BMP_temperature;BMP_pressure;BME280_temperature;BME280_humidity;BME280_pressure;Samples;Min_cycle;Max_cycle;Signal;HPM_P1;HPM_P2
2021/03/04 00:02:48;;;;;;;9.70;6.83;;;20.90;30.10;;;;;;8385483;28;20489;-51
2021/03/04 00:06:48;;;;;;;8.73;6.50;;;20.90;30.10;;;;;;8385270;28;20390;-54
2021/03/04 00:10:49;;;;;;;10.17;6.30;;;20.90;30.10;;;;;;8383947;28;20033;-54
2021/03/04 00:14:49;;;;;;;9.97;6.43;;;20.80;30.10;;;;;;8389976;28;20513;-55
2021/03/04 00:18:50;;;;;;;8.60;6.30;;;20.80;30.10;;;;;;8385413;28;20032;-53
2021/03/04 00:22:50;;;;;;;9.27;6.33;;;20.80;30.10;;;;;;8383611;28;20049;-55
2021/03/04 00:26:51;;;;;;;11.13;6.77;;;20.80;30.10;;;;;;8385074;28;20152;-55
2021/03/04 00:30:51;;;;;;;12.17;6.37;;;20.80;30.10;;;;;;8388884;28;20524;-55
2021/03/04 00:34:52;;;;;;;8.43;6.33;;;20.70;30.10;;;;;;8383710;28;20064;-55
2021/03/04 00:38:53;;;;;;;9.53;6.90;;;20.70;30.10;;;;;;8385353;28;20036;-55
2021/03/04 00:42:53;;;;;;;9.37;6.30;;;20.70;30.10;;;;;;8385015;28;20037;-55
2021/03/04 00:46:54;;;;;;;10.07;6.33;;;20.70;30.20;;;;;;8383265;28;20128;-55
2021/03/04 00:50:54;;;;;;;9.37;6.20;;;20.60;30.10;;;;;;8388970;28;20517;-55
2021/03/04 00:54:55;;;;;;;8.40;6.37;;;20.60;30.10;;;;;;8384722;28;20051;-54
2021/03/04 00:58:55;;;;;;;9.53;6.63;;;20.60;30.70;;;;;;8382778;28;20044;-55
2021/03/04 01:02:56;;;;;;;8.43;5.87;;;20.60;30.10;;;;;;8389743;28;20485;-55
2021/03/04 01:06:56;;;;;;;10.37;5.97;;;20.60;30.20;;;;;;8422025;28;20055;-55
2021/03/04 01:10:58;;;;;;;9.30;5.93;;;20.60;30.20;;;;;;8386896;28;20040;-55
2021/03/04 01:14:58;;;;;;;8.63;5.85;;;20.60;30.20;;;;;;8385428;28;20093;-55
2021/03/04 01:18:59;;;;;;;8.37;6.47;;;20.60;30.20;;;;;;8390301;28;20024;-54
2021/03/04 01:22:59;;;;;;;9.50;6.33;;;20.50;30.20;;;;;;8392913;28;20040;-54
2021/03/04 01:27:00;;;;;;;9.35;6.57;;;20.50;30.10;;;;;;8389637;28;20056;-54
2021/03/04 01:31:00;;;;;;;8.63;6.17;;;20.50;30.20;;;;;;8390388;28;20114;-55
2021/03/04 01:35:02;;;;;;;9.37;6.20;;;20.50;30.20;;;;;;8388156;28;20127;-55
2021/03/04 01:39:05;;;;;;;9.85;6.68;;;20.50;30.20;;;;;;8389619;28;20020;-55
2021/03/04 01:43:06;;;;;;;10.60;6.32;;;20.40;30.10;;;;;;8393993;28;20068;-55
2021/03/04 01:47:07;;;;;;;9.60;6.93;;;20.40;30.20;;;;;;8387449;28;20542;-54
2021/03/04 01:51:08;;;;;;;9.02;6.60;;;20.40;30.20;;;;;;8389353;28;20490;-55
2021/03/04 01:55:09;;;;;;;11.17;6.43;;;20.40;30.20;;;;;;8389708;28;20032;-56
2021/03/04 01:59:10;;;;;;;;;;;20.40;30.20;;;;;;8392436;28;20039;-55
2021/03/04 02:03:20;;;;;;;11.43;6.87;;;20.40;30.20;;;;;;8388770;28;20296;-55
2021/03/04 02:07:39;;;;;;;9.23;5.75;;;20.30;30.20;;;;;;8410084;28;20044;-55
2021/03/04 02:11:52;;;;;;;12.52;6.57;;;20.30;30.20;;;;;;8405169;28;20409;-55
2021/03/04 02:16:14;;;;;;;10.95;5.82;;;20.30;30.20;;;;;;8388731;28;20025;-54
2021/03/04 02:20:23;;;;;;;10.38;6.18;;;20.30;30.20;;;;;;8389794;28;20028;-54
2021/03/04 02:24:27;;;;;;;10.05;6.55;;;20.30;30.20;;;;;;8359414;28;20091;-55
2021/03/04 02:28:31;;;;;;;8.93;6.25;;;20.30;30.20;;;;;;8403208;28;20051;-55
2021/03/04 02:32:33;;;;;;;10.38;6.38;;;20.30;30.20;;;;;;8403802;28;20060;-55
2021/03/04 02:36:35;;;;;;;9.88;6.50;;;20.30;30.20;;;;;;8387759;28;20497;-54
2021/03/04 02:40:38;;;;;;;9.40;6.10;;;20.20;30.20;;;;;;8390231;28;20137;-55
2021/03/04 02:44:40;;;;;;;12.55;6.53;;;20.20;30.20;;;;;;8387332;28;20048;-55
2021/03/04 02:48:41;;;;;;;11.60;6.85;;;20.20;30.20;;;;;;8387196;28;20074;-55
2021/03/04 02:52:43;;;;;;;9.47;6.07;;;20.20;30.20;;;;;;8386105;28;20029;-55
2021/03/04 02:56:44;;;;;;;10.32;6.75;;;20.20;30.20;;;;;;8388357;28;20028;-55
2021/03/04 03:00:46;;;;;;;9.45;6.50;;;20.20;30.20;;;;;;8390309;28;20437;-56
2021/03/04 03:04:47;;;;;;;13.30;6.65;;;20.20;30.20;;;;;;8384944;28;20029;-55
2021/03/04 03:08:48;;;;;;;12.15;7.07;;;20.10;30.20;;;;;;8386587;28;20086;-54
2021/03/04 03:12:49;;;;;;;10.02;6.30;;;20.20;30.20;;;;;;8386574;28;20032;-55
2021/03/04 03:16:50;;;;;;;9.15;6.05;;;20.10;30.20;;;;;;8389454;28;20112;-55
2021/03/04 03:20:51;;;;;;;9.20;6.53;;;20.10;30.20;;;;;;8414436;28;20032;-55
2021/03/04 03:24:51;;;;;;;9.97;6.83;;;20.10;30.20;;;;;;8401042;28;20299;-55
2021/03/04 03:28:52;;;;;;;11.47;6.27;;;20.10;30.20;;;;;;8384506;28;20121;-55
2021/03/04 03:33:03;;;;;;;8.67;5.87;;;20.10;30.20;;;;;;8390596;28;20033;-55
2021/03/04 03:37:04;;;;;;;9.23;6.57;;;20.10;30.20;;;;;;8388609;28;20062;-55
2021/03/04 03:41:06;;;;;;;9.00;6.55;;;20.00;30.20;;;;;;8383836;28;20082;-55
2021/03/04 03:45:10;;;;;;;10.57;6.10;;;20.00;30.20;;;;;;8385646;28;20051;-55
2021/03/04 03:49:12;;;;;;;9.05;5.78;;;20.00;30.20;;;;;;8385613;28;20397;-54
2021/03/04 03:53:14;;;;;;;11.07;6.00;;;20.00;30.20;;;;;;8388639;28;20067;-55
2021/03/04 03:57:15;;;;;;;9.48;6.05;;;20.00;30.20;;;;;;8385530;28;20033;-55
2021/03/04 04:01:17;;;;;;;7.78;5.82;;;20.00;30.20;;;;;;8386041;28;20606;-55
2021/03/04 04:05:18;;;;;;;9.73;6.22;;;20.00;30.20;;;;;;8383375;28;20138;-55
2021/03/04 04:09:19;;;;;;;10.93;5.93;;;20.00;30.30;;;;;;8389917;28;20126;-55
2021/03/04 04:13:20;;;;;;;8.85;5.72;;;20.00;30.30;;;;;;8385172;28;20541;-55
2021/03/04 04:17:21;;;;;;;9.33;6.83;;;20.00;30.30;;;;;;8383928;28;20048;-55
2021/03/04 04:21:22;;;;;;;11.73;6.75;;;20.00;30.30;;;;;;8383627;28;20085;-56
2021/03/04 04:25:25;;;;;;;8.00;6.22;;;20.00;30.30;;;;;;8384850;28;20057;-55
2021/03/04 04:29:25;;;;;;;8.32;6.07;;;20.10;30.30;;;;;;8387767;28;20037;-55
2021/03/04 04:33:26;;;;;;;9.57;6.60;;;20.10;30.20;;;;;;8385251;28;20149;-56
2021/03/04 04:37:27;;;;;;;8.93;6.33;;;20.10;30.20;;;;;;8384845;28;20182;-56
2021/03/04 04:41:27;;;;;;;10.07;6.30;;;20.20;30.20;;;;;;8384037;28;20395;-55
2021/03/04 04:45:28;;;;;;;10.33;6.57;;;20.20;30.10;;;;;;8389231;28;20044;-56
2021/03/04 04:49:28;;;;;;;10.63;6.22;;;20.20;30.10;;;;;;8384992;28;20043;-54
2021/03/04 04:53:29;;;;;;;9.07;6.37;;;20.30;30.00;;;;;;8388528;28;20082;-55
2021/03/04 04:57:29;;;;;;;12.07;7.37;;;20.30;30.00;;;;;;8390652;28;20068;-55
2021/03/04 05:01:30;;;;;;;9.30;5.80;;;20.30;30.00;;;;;;8393236;28;20033;-55
2021/03/04 05:05:31;;;;;;;9.13;5.80;;;20.40;30.00;;;;;;8423221;28;20523;-55
2021/03/04 05:09:31;;;;;;;9.50;5.83;;;20.40;30.00;;;;;;8423274;28;20048;-55
2021/03/04 05:13:32;;;;;;;9.50;5.73;;;20.40;30.00;;;;;;8409796;28;20436;-56
2021/03/04 05:17:32;;;;;;;9.23;6.27;;;20.40;30.00;;;;;;8388383;28;20033;-55
2021/03/04 05:21:33;;;;;;;9.60;6.00;;;20.50;30.00;;;;;;8394536;28;20078;-54
2021/03/04 05:25:34;;;;;;;8.77;6.05;;;20.50;30.00;;;;;;8387908;28;20151;-56
2021/03/04 05:29:35;;;;;;;9.57;6.37;;;20.60;30.00;;;;;;8390044;28;20036;-55
2021/03/04 05:33:36;;;;;;;10.20;6.13;;;20.60;30.00;;;;;;8389876;28;20577;-55
2021/03/04 05:37:36;;;;;;;10.73;6.97;;;20.60;30.00;;;;;;8392080;28;20044;-55
2021/03/04 05:41:37;;;;;;;8.67;6.40;;;20.60;30.00;;;;;;8389334;28;20414;-55
2021/03/04 05:45:40;;;;;;;8.60;5.97;;;20.60;30.00;;;;;;8389350;28;20409;-56
2021/03/04 05:49:57;;;;;;;8.10;6.07;;;20.60;30.00;;;;;;8397718;28;20029;-55
2021/03/04 05:53:59;;;;;;;9.35;6.45;;;20.70;30.00;;;;;;8418227;28;20040;-56
2021/03/04 05:58:00;;;;;;;;;;;20.70;30.00;;;;;;8393765;28;20127;-55
2021/03/04 06:02:05;;;;;;;10.73;6.20;;;20.70;30.00;;;;;;8386791;28;19928;-55
2021/03/04 06:06:09;;;;;;;9.30;5.88;;;20.70;30.00;;;;;;8406224;28;20278;-55
2021/03/04 06:10:11;;;;;;;10.98;5.97;;;20.70;30.00;;;;;;8412799;28;20037;-55
2021/03/04 06:14:11;;;;;;;7.60;5.60;;;20.70;30.00;;;;;;8391010;28;20020;-56
2021/03/04 06:18:12;;;;;;;8.93;5.80;;;20.70;30.00;;;;;;8388618;28;20788;-56
2021/03/04 06:22:12;;;;;;;8.77;5.57;;;20.80;30.00;;;;;;8387864;28;20040;-56
2021/03/04 06:26:38;;;;;;;9.40;6.27;;;20.80;30.00;;;;;;8386582;28;20056;-56
2021/03/04 06:30:41;;;;;;;8.60;5.93;;;20.80;30.00;;;;;;8387377;28;20051;-55
2021/03/04 06:34:42;;;;;;;10.90;6.55;;;20.80;30.00;;;;;;8390002;28;20043;-56
2021/03/04 06:38:56;;;;;;;9.17;6.30;;;20.80;30.00;;;;;;8387444;28;20040;-55
2021/03/04 06:42:58;;;;;;;8.15;5.78;;;20.80;30.00;;;;;;8386931;28;20036;-56
2021/03/04 06:46:58;;;;;;;9.25;5.85;;;20.90;30.00;;;;;;8385247;28;20053;-55
2021/03/04 06:51:01;;;;;;;7.70;5.47;;;20.90;30.00;;;;;;8387487;28;20086;-56
2021/03/04 06:55:15;;;;;;;9.45;6.28;;;20.90;30.00;;;;;;8391505;28;20493;-55
2021/03/04 06:59:16;;;;;;;8.70;6.35;;;20.90;30.00;;;;;;8384961;28;20041;-56
2021/03/04 07:03:16;;;;;;;9.00;6.20;;;20.90;29.90;;;;;;8386670;28;20425;-56
2021/03/04 07:07:17;;;;;;;8.30;5.43;;;21.00;30.00;;;;;;8386313;28;20509;-56
2021/03/04 07:11:23;;;;;;;6.82;5.40;;;20.90;29.90;;;;;;8389248;28;20559;-56
2021/03/04 07:15:23;;;;;;;10.20;5.80;;;21.00;29.90;;;;;;8385923;28;20469;-56
2021/03/04 07:19:27;;;;;;;10.77;6.35;;;21.00;29.90;;;;;;8385867;28;20040;-56
2021/03/04 07:23:28;;;;;;;9.98;6.22;;;21.00;29.90;;;;;;8384233;28;20119;-56
2021/03/04 07:27:29;;;;;;;7.50;5.53;;;21.00;29.90;;;;;;8388389;28;20040;-56
2021/03/04 07:31:30;;;;;;;9.87;6.53;;;21.00;29.90;;;;;;8423644;28;20040;-56
2021/03/04 07:35:30;;;;;;;9.80;6.05;;;21.10;29.90;;;;;;8390851;28;20059;-56
2021/03/04 07:39:33;;;;;;;8.30;5.67;;;21.10;29.90;;;;;;8385531;28;20050;-56
2021/03/04 07:43:54;;;;;;;9.00;5.68;;;21.10;29.90;;;;;;8384390;28;20379;-55
2021/03/04 07:48:06;;;;;;;10.20;6.55;;;21.10;29.90;;;;;;8387424;28;20048;-56
2021/03/04 07:52:11;;;;;;;11.00;6.10;;;21.10;29.90;;;;;;8389800;28;20501;-56
2021/03/04 07:56:26;;;;;;;8.93;6.32;;;21.10;29.90;;;;;;8384171;28;20040;-56
2021/03/04 08:00:34;;;;;;;9.75;5.75;;;21.10;29.90;;;;;;8385416;28;20102;-56
2021/03/04 08:04:34;;;;;;;11.93;6.82;;;21.10;29.90;;;;;;8391170;28;20123;-56
2021/03/04 08:08:39;;;;;;;10.63;6.77;;;21.10;29.90;;;;;;8422903;28;20389;-55
2021/03/04 08:12:54;;;;;;;9.02;6.32;;;21.20;29.90;;;;;;8385105;28;20044;-56
2021/03/04 08:16:55;;;;;;;8.35;6.03;;;21.20;29.90;;;;;;8383213;28;20036;-56
2021/03/04 08:21:04;;;;;;;8.23;6.23;;;21.20;29.90;;;;;;8384880;28;20486;-56
2021/03/04 08:25:06;;;;;;;9.10;6.22;;;21.20;29.90;;;;;;8386849;28;20052;-56
2021/03/04 08:29:10;;;;;;;8.60;6.63;;;21.20;29.80;;;;;;8394202;28;20028;-56
2021/03/04 08:33:12;;;;;;;11.85;6.72;;;21.30;29.80;;;;;;8390934;28;20036;-56
2021/03/04 08:37:22;;;;;;;9.55;6.65;;;21.30;29.80;;;;;;8391692;28;20041;-56
2021/03/04 08:41:23;;;;;;;9.00;6.03;;;21.30;29.80;;;;;;8388907;28;20048;-56
2021/03/04 08:45:28;;;;;;;9.65;6.82;;;21.30;29.80;;;;;;8390886;28;20044;-56
2021/03/04 08:49:29;;;;;;;8.95;6.57;;;21.30;29.80;;;;;;8395250;28;20090;-56
2021/03/04 08:53:34;;;;;;;9.33;6.20;;;21.30;29.80;;;;;;8388900;28;20036;-56
2021/03/04 08:57:35;;;;;;;9.40;6.63;;;21.30;29.80;;;;;;8389855;28;20482;-56
2021/03/04 09:01:35;;;;;;;9.55;6.28;;;21.30;29.80;;;;;;8388387;28;20040;-56
2021/03/04 09:05:37;;;;;;;8.83;6.27;;;21.30;29.80;;;;;;8394532;28;20167;-56
2021/03/04 09:09:38;;;;;;;10.15;6.20;;;21.30;29.80;;;;;;8390571;28;20044;-57
2021/03/04 09:13:38;;;;;;;8.60;6.47;;;21.30;29.80;;;;;;8388333;28;20047;-56
2021/03/04 09:17:43;;;;;;;7.30;5.73;;;21.30;29.80;;;;;;8389554;28;20066;-56
2021/03/04 09:21:44;;;;;;;8.10;5.97;;;21.40;29.80;;;;;;8390940;28;20589;-56
2021/03/04 09:25:45;;;;;;;9.03;5.87;;;21.40;29.80;;;;;;8425744;28;20048;-56
2021/03/04 09:29:46;;;;;;;9.60;6.65;;;21.40;29.80;;;;;;8397348;28;20044;-56
2021/03/04 09:33:56;;;;;;;8.53;5.90;;;21.40;29.80;;;;;;8389239;28;20037;-55
2021/03/04 09:38:06;;;;;;;7.78;6.07;;;21.40;29.80;;;;;;8387220;28;20271;-56
2021/03/04 09:42:08;;;;;;;9.13;6.18;;;21.40;29.80;;;;;;8393353;28;20032;-56
2021/03/04 09:46:09;;;;;;;8.95;5.72;;;21.40;29.80;;;;;;8388164;28;20076;-56
2021/03/04 09:50:18;;;;;;;8.35;6.13;;;21.40;29.80;;;;;;8408071;28;20055;-56
2021/03/04 09:54:27;;;;;;;8.85;5.72;;;21.50;29.80;;;;;;8409592;28;20047;-56
2021/03/04 09:58:28;;;;;;;7.68;5.30;;;21.50;29.80;;;;;;8388837;28;20051;-56
2021/03/04 10:02:37;;;;;;;9.47;5.60;;;21.50;29.80;;;;;;8390757;28;20036;-55
2021/03/04 10:06:38;;;;;;;8.35;6.03;;;21.50;29.80;;;;;;8388343;28;20044;-56
2021/03/04 10:10:40;;;;;;;7.15;5.65;;;21.50;30.20;;;;;;8387085;28;20047;-56
2021/03/04 10:14:48;;;;;;;8.02;5.85;;;21.50;29.80;;;;;;8397152;28;20036;-56
2021/03/04 10:18:50;;;;;;;7.93;5.75;;;21.50;29.80;;;;;;8421699;28;20032;-56
2021/03/04 10:22:51;;;;;;;9.05;6.07;;;21.50;29.80;;;;;;8357571;28;20041;-56
2021/03/04 10:26:52;;;;;;;7.55;5.78;;;21.60;29.80;;;;;;8378941;28;20528;-56
2021/03/04 10:30:53;;;;;;;8.23;6.15;;;21.60;29.80;;;;;;8387740;28;20082;-56
2021/03/04 10:34:53;;;;;;;7.30;5.10;;;21.60;29.80;;;;;;8385500;28;20597;-56
2021/03/04 10:38:54;;;;;;;9.53;5.00;;;21.70;29.80;;;;;;8391872;28;20044;-56
2021/03/04 10:42:54;;;;;;;10.93;5.47;;;21.70;29.80;;;;;;8387262;27;20036;-56
2021/03/04 10:46:55;;;;;;;7.80;5.43;;;21.70;30.00;;;;;;8401989;28;20512;-55
2021/03/04 10:50:55;;;;;;;8.43;5.10;;;21.70;29.70;;;;;;8365737;28;20565;-56
2021/03/04 10:54:56;;;;;;;10.70;5.87;;;21.70;29.70;;;;;;8391150;28;20035;-56
2021/03/04 10:58:57;;;;;;;7.07;5.47;;;21.80;29.70;;;;;;8384596;28;20425;-56
2021/03/04 11:02:57;;;;;;;7.37;5.83;;;21.80;29.70;;;;;;8387259;28;20068;-56
2021/03/04 11:06:58;;;;;;;7.33;5.13;;;21.80;29.70;;;;;;8385979;28;20059;-56
2021/03/04 11:10:58;;;;;;;8.33;5.70;;;21.80;29.60;;;;;;8384728;28;20151;-56
2021/03/04 11:14:59;;;;;;;9.50;5.33;;;21.70;29.50;;;;;;8390951;28;20455;-54
2021/03/04 11:18:59;;;;;;;8.25;5.38;;;21.70;29.50;;;;;;8385992;28;20508;-54
2021/03/04 11:23:00;;;;;;;6.23;4.80;;;21.70;29.50;;;;;;8383675;28;20039;-53
2021/03/04 11:27:01;;;;;;;7.77;5.43;;;21.70;29.40;;;;;;8386014;28;20041;-55
2021/03/04 11:31:01;;;;;;;8.10;4.88;;;21.70;29.40;;;;;;8390266;28;20093;-56
2021/03/04 11:35:03;;;;;;;7.67;4.70;;;21.70;29.40;;;;;;8383324;28;20033;-56
2021/03/04 11:39:04;;;;;;;8.00;5.00;;;21.60;29.40;;;;;;8385094;28;20397;-56
2021/03/04 11:43:04;;;;;;;7.15;4.32;;;21.60;29.40;;;;;;8384924;28;20032;-56
2021/03/04 11:47:05;;;;;;;6.10;4.60;;;21.60;29.40;;;;;;8387500;28;20474;-56
2021/03/04 11:51:06;;;;;;;7.27;4.40;;;21.60;29.40;;;;;;8385500;28;20041;-57
2021/03/04 11:55:08;;;;;;;7.70;4.80;;;21.50;29.30;;;;;;8385322;28;20048;-57
2021/03/04 11:59:13;;;;;;;12.32;5.18;;;21.50;29.30;;;;;;8382673;28;20040;-56
2021/03/04 12:03:13;;;;;;;6.68;4.57;;;21.50;29.30;;;;;;8384830;28;20100;-56
2021/03/04 12:07:14;;;;;;;8.00;5.10;;;21.50;29.30;;;;;;8389371;28;20078;-56
2021/03/04 12:11:14;;;;;;;8.30;4.80;;;21.40;29.30;;;;;;8383329;28;20048;-56
2021/03/04 12:15:16;;;;;;;8.37;4.80;;;21.50;29.30;;;;;;8385177;28;20037;-56
2021/03/04 12:19:17;;;;;;;7.82;5.20;;;21.40;29.30;;;;;;8384860;28;20123;-56
2021/03/04 12:23:18;;;;;;;7.63;5.33;;;21.40;29.30;;;;;;8387628;28;20036;-58
2021/03/04 12:27:18;;;;;;;6.33;4.60;;;21.40;29.30;;;;;;8384460;28;20064;-56
2021/03/04 12:31:19;;;;;;;8.80;5.00;;;21.40;29.30;;;;;;8384843;28;20771;-55
2021/03/04 12:35:19;;;;;;;9.27;4.50;;;21.40;29.30;;;;;;8382856;28;20563;-56
2021/03/04 12:39:20;;;;;;;7.33;4.47;;;21.30;29.30;;;;;;8384623;28;20343;-55
2021/03/04 12:43:20;;;;;;;6.97;4.80;;;21.40;29.30;;;;;;8389238;28;20041;-55
2021/03/04 12:47:21;;;;;;;9.17;5.13;;;21.30;29.30;;;;;;8382278;28;20421;-56
2021/03/04 12:51:21;;;;;;;10.23;5.13;;;21.30;29.30;;;;;;8384135;28;20048;-56
2021/03/04 12:55:23;;;;;;;8.27;5.20;;;21.30;29.30;;;;;;8384239;28;20058;-57
2021/03/04 12:59:24;;;;;;;6.35;4.22;;;21.30;29.30;;;;;;8387080;28;20032;-56
2021/03/04 13:03:26;;;;;;;6.20;4.37;;;21.20;29.40;;;;;;8384730;28;20242;-56
2021/03/04 13:07:26;;;;;;;9.68;4.50;;;21.20;29.30;;;;;;8384003;28;20540;-55
2021/03/04 13:11:27;;;;;;;7.63;5.00;;;21.20;29.40;;;;;;8383401;28;20057;-57
2021/03/04 13:15:28;;;;;;;8.23;4.85;;;21.20;29.40;;;;;;8394679;28;20509;-57
2021/03/04 13:19:28;;;;;;;8.87;4.67;;;21.20;29.40;;;;;;8389851;28;20432;-56
2021/03/04 13:23:29;;;;;;;6.77;4.23;;;21.20;29.40;;;;;;8387983;28;20477;-56
2021/03/04 13:27:29;;;;;;;8.23;5.13;;;21.10;29.40;;;;;;8401584;28;20036;-57
2021/03/04 13:31:30;;;;;;;9.60;4.87;;;21.10;29.30;;;;;;8420074;28;20497;-56
2021/03/04 13:35:30;;;;;;;8.10;4.90;;;21.10;29.40;;;;;;8392335;28;20086;-57
2021/03/04 13:39:31;;;;;;;8.37;4.90;;;21.20;29.40;;;;;;8389562;28;20048;-56
2021/03/04 13:43:32;;;;;;;6.53;4.33;;;21.10;29.40;;;;;;8389918;28;20032;-54
2021/03/04 13:47:32;;;;;;;5.80;3.80;;;21.10;29.40;;;;;;8387215;28;20577;-55
2021/03/04 13:51:33;;;;;;;7.45;4.63;;;21.10;29.40;;;;;;8393567;28;20035;-55
2021/03/04 13:55:33;;;;;;;5.57;4.00;;;21.10;29.40;;;;;;8389099;28;20032;-55
2021/03/04 13:59:34;;;;;;;7.57;4.70;;;21.10;29.40;;;;;;8387623;28;20109;-55
2021/03/04 14:03:36;;;;;;;6.57;4.80;;;21.10;29.40;;;;;;8388748;28;20047;-55
2021/03/04 14:07:37;;;;;;;9.02;4.97;;;21.10;29.40;;;;;;8388006;28;20048;-55
2021/03/04 14:11:37;;;;;;;7.83;4.57;;;21.00;29.50;;;;;;8384131;28;20058;-55
2021/03/04 14:15:38;;;;;;;8.77;4.63;;;21.00;29.50;;;;;;8388716;28;20037;-54
2021/03/04 14:19:38;;;;;;;8.35;4.43;;;21.00;29.40;;;;;;8371168;28;20036;-55
2021/03/04 14:23:39;;;;;;;4.33;3.70;;;21.00;29.50;;;;;;8387076;28;20024;-53
2021/03/04 14:27:40;;;;;;;6.57;4.90;;;21.00;29.40;;;;;;8392893;28;20049;-55
2021/03/04 14:31:40;;;;;;;7.63;4.10;;;21.00;29.50;;;;;;8384456;28;20036;-55
2021/03/04 14:35:41;;;;;;;7.90;4.20;;;20.90;29.40;;;;;;8376324;28;20124;-55
2021/03/04 14:39:41;;;;;;;6.00;4.07;;;20.90;29.40;;;;;;8387350;28;20029;-55
2021/03/04 14:43:42;;;;;;;7.47;4.20;;;20.90;29.50;;;;;;8383416;28;20049;-52
2021/03/04 14:47:43;;;;;;;7.37;4.23;;;20.90;29.50;;;;;;8385050;28;20056;-51
2021/03/04 14:51:43;;;;;;;7.17;4.17;;;20.90;29.50;;;;;;8387095;28;20037;-51
2021/03/04 14:55:44;;;;;;;6.67;3.60;;;20.90;29.50;;;;;;8385394;28;20047;-55
2021/03/04 14:59:44;;;;;;;6.73;4.50;;;20.90;29.60;;;;;;8386937;28;20033;-55
2021/03/04 15:03:45;;;;;;;7.33;5.07;;;20.90;29.60;;;;;;8358949;28;20049;-55
2021/03/04 15:07:46;;;;;;;7.60;3.83;;;20.90;29.60;;;;;;8376628;28;20075;-54
2021/03/04 15:11:46;;;;;;;7.00;4.23;;;20.90;29.60;;;;;;8387046;28;20064;-52
2021/03/04 15:15:47;;;;;;;8.00;4.57;;;21.00;29.60;;;;;;8401692;28;20063;-53
2021/03/04 15:19:47;;;;;;;5.90;4.07;;;21.00;29.50;;;;;;8364967;28;20075;-52
2021/03/04 15:23:48;;;;;;;8.10;4.07;;;21.00;29.50;;;;;;8381667;28;20486;-51
2021/03/04 15:27:49;;;;;;;5.57;3.87;;;21.10;29.50;;;;;;8385634;28;20051;-53
2021/03/04 15:31:50;;;;;;;;;;;21.10;29.40;;;;;;8384660;28;20032;-54
2021/03/04 15:35:50;;;;;;;7.23;4.10;;;21.10;29.40;;;;;;8373816;28;20425;-54
2021/03/04 15:39:51;;;;;;;7.60;4.77;;;21.20;29.50;;;;;;8384471;28;20410;-52
2021/03/04 15:43:51;;;;;;;5.30;4.17;;;21.20;29.50;;;;;;8383964;28;20114;-54
2021/03/04 15:47:52;;;;;;;7.43;3.87;;;21.20;29.50;;;;;;8385919;28;20131;-54
2021/03/04 15:51:53;;;;;;;6.70;3.55;;;21.20;29.50;;;;;;8379843;28;20035;-54
2021/03/04 15:55:53;;;;;;;8.20;4.20;;;21.20;29.40;;;;;;8388335;28;20037;-54
2021/03/04 15:59:55;;;;;;;7.07;3.93;;;21.30;29.50;;;;;;8385559;28;20079;-54
2021/03/04 16:03:55;;;;;;;;;;;21.30;29.50;;;;;;8386068;28;20040;-54
2021/03/04 16:07:56;;;;;;;6.90;4.00;;;21.30;29.50;;;;;;8382715;28;19924;-53
2021/03/04 16:11:57;;;;;;;7.37;4.17;;;21.30;29.50;;;;;;8356203;28;20047;-54
2021/03/04 16:15:57;;;;;;;7.50;4.15;;;21.30;29.50;;;;;;8381674;28;20041;-54
2021/03/04 16:19:58;;;;;;;5.47;3.40;;;21.30;29.90;;;;;;8401959;28;20128;-53
2021/03/04 16:23:58;;;;;;;7.17;3.90;;;21.30;29.50;;;;;;8408004;28;20051;-53
2021/03/04 16:27:59;;;;;;;6.33;3.83;;;21.30;29.50;;;;;;8381356;28;20048;-53
2021/03/04 16:32:00;;;;;;;7.20;3.67;;;21.30;29.40;;;;;;8384069;28;20450;-54
2021/03/04 16:36:00;;;;;;;9.55;4.10;;;21.30;29.40;;;;;;8384884;28;20413;-53
2021/03/04 16:40:01;;;;;;;7.00;4.07;;;21.40;29.50;;;;;;8385011;28;20060;-53
2021/03/04 16:44:01;;;;;;;7.00;3.40;;;21.40;29.50;;;;;;8368949;28;20106;-54
2021/03/04 16:48:02;;;;;;;5.03;3.90;;;21.40;29.50;;;;;;8392286;28;20041;-52
2021/03/04 16:52:03;;;;;;;7.32;4.13;;;21.30;29.50;;;;;;8391888;28;20069;-55
2021/03/04 16:56:04;;;;;;;6.93;3.93;;;21.40;29.60;;;;;;8389062;28;20054;-57
2021/03/04 17:00:06;;;;;;;4.50;3.25;;;21.40;29.60;;;;;;8387862;28;20267;-54
2021/03/04 17:04:08;;;;;;;6.63;3.47;;;21.40;29.60;;;;;;8395073;28;20490;-53
2021/03/04 17:08:09;;;;;;;7.72;4.53;;;21.40;29.60;;;;;;8388422;28;20059;-54
2021/03/04 17:12:09;;;;;;;5.47;3.80;;;21.40;29.60;;;;;;8391080;28;20051;-54
2021/03/04 17:16:10;;;;;;;5.97;3.63;;;21.40;29.70;;;;;;8387716;28;20079;-54
2021/03/04 17:20:11;;;;;;;4.90;3.73;;;21.40;29.60;;;;;;8354407;28;20044;-54
2021/03/04 17:24:12;;;;;;;9.18;4.72;;;21.40;29.70;;;;;;8394709;28;20028;-55
2021/03/04 17:28:14;;;;;;;5.73;3.93;;;21.30;29.70;;;;;;8389523;28;20041;-55
2021/03/04 17:32:15;;;;;;;5.40;3.63;;;21.30;29.70;;;;;;8388112;28;20780;-54
2021/03/04 17:36:16;;;;;;;6.13;4.10;;;21.30;29.70;;;;;;8372296;28;20040;-55
2021/03/04 17:40:17;;;;;;;6.90;3.77;;;21.30;29.80;;;;;;8427219;28;20078;-55
2021/03/04 17:44:18;;;;;;;5.40;3.38;;;21.30;29.80;;;;;;8391765;28;20115;-54
2021/03/04 17:48:18;;;;;;;6.50;3.53;;;21.20;29.80;;;;;;8388924;28;20190;-55
2021/03/04 17:52:19;;;;;;;6.23;3.73;;;21.20;29.90;;;;;;8378027;27;20465;-56
2021/03/04 17:56:19;;;;;;;4.83;3.67;;;21.20;29.90;;;;;;8391965;28;20044;-56
2021/03/04 18:00:20;;;;;;;6.73;3.97;;;21.20;29.90;;;;;;8388960;28;20088;-54
2021/03/04 18:04:21;;;;;;;5.68;3.72;;;21.10;29.90;;;;;;8388550;28;20071;-55
2021/03/04 18:08:22;;;;;;;5.60;3.60;;;21.10;29.90;;;;;;8387436;28;20551;-55
2021/03/04 18:12:22;;;;;;;5.03;3.60;;;21.10;30.00;;;;;;8388546;28;20102;-54
2021/03/04 18:16:23;;;;;;;4.70;3.67;;;21.10;30.40;;;;;;8392852;28;20041;-55
2021/03/04 18:20:23;;;;;;;5.63;3.47;;;21.10;30.00;;;;;;8386303;28;20040;-54
2021/03/04 18:24:24;;;;;;;5.90;3.57;;;21.00;30.00;;;;;;8384043;28;20478;-55
2021/03/04 18:28:25;;;;;;;7.03;4.10;;;21.00;30.00;;;;;;8390344;27;20056;-55
2021/03/04 18:32:25;;;;;;;5.03;3.42;;;21.00;30.00;;;;;;8424357;28;20037;-55
2021/03/04 18:36:26;;;;;;;4.57;3.43;;;20.90;30.00;;;;;;8391048;28;20528;-55
2021/03/04 18:40:27;;;;;;;5.90;3.63;;;20.90;30.00;;;;;;8387728;28;20432;-54
2021/03/04 18:44:28;;;;;;;6.80;3.20;;;20.90;30.00;;;;;;8366121;28;20075;-55
2021/03/04 18:48:28;;;;;;;6.72;3.17;;;20.90;30.10;;;;;;8388266;28;20282;-55
2021/03/04 18:52:29;;;;;;;7.57;4.13;;;20.90;30.30;;;;;;8390370;28;20041;-54
2021/03/04 18:56:29;;;;;;;8.07;3.57;;;20.90;30.20;;;;;;8385458;28;20048;-56
2021/03/04 19:00:30;;;;;;;5.97;3.77;;;20.90;30.30;;;;;;8378981;28;20036;-56
2021/03/04 19:04:30;;;;;;;6.33;3.70;;;20.90;30.30;;;;;;8387134;28;20398;-55
2021/03/04 19:08:31;;;;;;;4.10;3.30;;;20.80;30.30;;;;;;8388840;28;20053;-55
2021/03/04 19:12:32;;;;;;;5.63;4.10;;;20.80;30.30;;;;;;8386014;28;20124;-55
2021/03/04 19:16:34;;;;;;;6.53;3.67;;;20.80;30.30;;;;;;8372920;28;20068;-55
2021/03/04 19:20:34;;;;;;;7.13;3.88;;;20.80;30.30;;;;;;8360138;28;20070;-54
2021/03/04 19:24:35;;;;;;;7.57;3.90;;;20.70;30.30;;;;;;8390486;28;20044;-52
2021/03/04 19:28:35;;;;;;;5.43;3.60;;;20.70;30.30;;;;;;8384328;28;20057;-56
2021/03/04 19:32:36;;;;;;;6.70;3.93;;;20.70;30.40;;;;;;8386483;28;20037;-54
2021/03/04 19:36:37;;;;;;;7.75;4.35;;;20.70;30.40;;;;;;8385935;28;20037;-55
2021/03/04 19:40:37;;;;;;;4.57;3.27;;;20.60;30.30;;;;;;8384123;28;20045;-55
2021/03/04 19:44:38;;;;;;;4.63;3.50;;;20.60;30.40;;;;;;8390145;28;20064;-55
2021/03/04 19:48:38;;;;;;;4.47;3.37;;;20.60;30.40;;;;;;8385742;28;20063;-55
2021/03/04 19:52:39;;;;;;;5.97;3.30;;;20.60;30.50;;;;;;8384032;28;20036;-54
2021/03/04 19:56:40;;;;;;;5.20;3.73;;;20.60;30.50;;;;;;8385888;28;20035;-55
2021/03/04 20:00:40;;;;;;;6.37;4.00;;;20.60;30.60;;;;;;8390201;28;20043;-55
2021/03/04 20:04:41;;;;;;;6.77;4.27;;;20.50;30.50;;;;;;8383915;28;20124;-53
2021/03/04 20:08:42;;;;;;;4.90;4.20;;;20.50;30.50;;;;;;8385112;28;20052;-56
2021/03/04 20:12:43;;;;;;;4.30;3.70;;;20.50;30.60;;;;;;8393418;28;20106;-55
2021/03/04 20:16:43;;;;;;;5.50;4.20;;;20.50;30.60;;;;;;8421443;28;20066;-56
2021/03/04 20:20:44;;;;;;;6.03;3.77;;;20.50;30.70;;;;;;8387761;28;20040;-55
2021/03/04 20:24:44;;;;;;;5.07;3.80;;;20.50;30.70;;;;;;8391806;28;20047;-55
2021/03/04 20:28:46;;;;;;;5.87;3.53;;;20.50;30.70;;;;;;8390665;28;20088;-55
2021/03/04 20:32:47;;;;;;;5.97;4.07;;;20.50;30.70;;;;;;8391780;28;20061;-56
2021/03/04 20:36:49;;;;;;;7.03;4.23;;;20.40;30.70;;;;;;8396173;28;20033;-56
2021/03/04 20:40:49;;;;;;;5.03;3.92;;;20.40;30.60;;;;;;8390462;28;20403;-56
2021/03/04 20:44:50;;;;;;;5.47;3.70;;;20.40;30.70;;;;;;8391333;28;20040;-56
2021/03/04 20:48:50;;;;;;;5.43;3.63;;;20.40;30.70;;;;;;8391098;28;20048;-56
2021/03/04 20:52:51;;;;;;;5.73;3.73;;;20.40;30.70;;;;;;8393819;28;20429;-56
2021/03/04 20:56:51;;;;;;;5.90;3.93;;;20.40;30.70;;;;;;8420350;28;20082;-56